Homeport Seattle

Current conditions, outlook, and status of Seattle.

 



Today is Sweetmorn, the 63rd day of Discord in the YOLD 3188

Content-type:text/html SDOT BRIDGE MINDER

Seattle Bridges

03:35:10 PM

Ballard OPEN   3:03:48 PM

Fremont OPEN   2:47:33 PM

University OPEN   12:35:49 PM

Montlake OPEN   12:35:49 PM

Lower Spokane OPEN   1:13:40 PM

1st Ave S OPEN   11:27:21 AM

South Park OPEN   12:35:49 PM

Note: Bridge data is only as reliable as the
@sdotbridges Twitter feed.




Seattle Tides

Click images to embiggen or to change display options




Content-type:text/html

national weather service

2022/05/16 21:53 KSEA 162153Z 24010G20KT 10SM FEW030 SCT060 BKN250 14/06 A3017 RMK AO2 SLP221 T01440056
2022/05/16 21:53 KBFI 162153Z 22008G17KT 10SM FEW030 BKN060 16/06 A3016 RMK AO2 SLP212 T01560061


  KSEA KBFI
  SeaTac Airport Boeing Field
day: 16 16
time: 2153 2153
type: Automated Automated
cond: Fair Fair
     
Winds    
     
mph: 11 9
mph gusting: 23 19
kts: 10 8
kts gusting: 20 17
direction: 240 220
direction: Southwest Southwest
     
Temperature and Humidity    
     
temp F: 57 60
dew point F: 42 42
temp C: 14 16
dew point C: 06 06
rel. humidity: 58 51
     
windchill F: 54 58
windchill C: 12 14
heat index F: 86 82
heat index C: 30 27
     
Clouds and Visibility    
     
cloud cover: Mostly Cloudy Mostly Cloudy
visibility mi: 10 10
visibility km: 16 16
     
Air pressure    
     
in HG: 30.17 30.16
mm HG: 766 766
kg/cm: 1.041818372 1.041473056
psi: 14.81811618 14.81320464
millibar: 1021 1021
     
Experimental and Esoteric    
     
prec tmp: T01440056 T01560061
storm:
sea inHG: 30.18 30.15
sea mmHG: 766 765
sea kgcm: 1.042255812 1.041338064
sea psi: 14.82433398 14.81128056
sea mbar: 1022 1021
     



NOAA Weather Radio Seattle -- KHB60
[ continuous ]

KHB60 coverage map

[ view larger map ]

 


2022.05.16

22 : 35 UTC


Local Metric Time

9.41


Unix epoch

1652740510

stardate

 

External Links

weather

[ NOAA weather radio ]

Fire Department 911 Incidents

another date (mm/dd/yyyy)

Puget Sound Waters

salish sea hydrophone network

[ Home || seattle aquarium | pt. townsend | san juan isl | lime kiln s.p ]

Traffic

KC DOT Cameras

 


- * - poop - * -